Konstantis IV — SY6956 — position and weather

sailwx.info

Track history (hours):
 
Tides and Currents Weather Stations Pressure Air Temp Water Temp Dewpoint Dewpoint Depression Visibility Wind Speed Wind Dir Waves Ship Positions

Konstantis IV

Last reported at 2018-Jun-12 03:00 UTC. Time now 2018-Jun-19 04:34 UTC.
Position N 40°50' E 024°20'.

Length 29 m; draft 2.4 m.

Type: Fishing. MMSI: 240488000.

Date/timePositionNaut miles runAvg speedWind from/ knotsBaromVisibWave heightAir tempDewpointWater temp
2018-Jun-12 03:00N 40°50' E 024°20'4 8.6
2018-Jun-12 02:30N 40°47' E 024°17'610.5
2018-Jun-12 01:55N 40°42' E 024°12'711.1
2018-Jun-12 01:19N 40°37' E 024°07'611.1
2018-Jun-12 00:46N 40°32' E 024°02'310.8
2018-Jun-12 00:28N 40°29' E 023°59'2 1.4
2018-Jun-11 22:50N 40°27' E 023°59'2 4.9
2018-Jun-11 22:24N 40°28' E 024°01'0 0.9
2018-Jun-11 21:58N 40°28' E 024°02'0 0.2
2018-Jun-11 21:30N 40°28' E 024°02'0 0.4
2018-Jun-11 20:55N 40°28' E 024°02'0 0.1
2018-Jun-11 20:30N 40°28' E 024°02'0 0.6
2018-Jun-11 19:54N 40°28' E 024°02'0 0.1
2018-Jun-11 19:30N 40°28' E 024°02'0 0.5
2018-Jun-11 18:58N 40°28' E 024°02'2 4.9
2018-Jun-11 18:30N 40°28' E 024°05'  
2018-Jun-07 18:46N 40°28' E 024°11'0 0.0
2018-Jun-07 18:16N 40°28' E 024°11'0 0.6
2018-Jun-07 17:53N 40°28' E 024°11'4 7.4
2018-Jun-07 17:22N 40°32' E 024°12'410.1
2018-Jun-07 17:00N 40°35' E 024°14'510.2
2018-Jun-07 16:30N 40°40' E 024°16'510.5
2018-Jun-07 16:00N 40°45' E 024°18'510.2
2018-Jun-07 15:30N 40°50' E 024°20'1 0.0
2018-Jun-05 23:54N 40°51' E 024°19'3 8.1
2018-Jun-05 23:30N 40°48' E 024°19'510.4
2018-Jun-05 23:00N 40°43' E 024°16'8 0.4
2018-Jun-05 02:35N 40°51' E 024°19'0 0.0
2018-Jun-05 02:30N 40°51' E 024°19'0 0.0
2018-Jun-05 01:51N 40°51' E 024°19'2 5.1
2018-Jun-05 01:30N 40°50' E 024°21'510.3
2018-Jun-05 00:59N 40°44' E 024°19'510.3
2018-Jun-05 00:30N 40°40' E 024°17'510.2
2018-Jun-05 00:00N 40°35' E 024°14'4 8.1
2018-Jun-04 23:27N 40°31' E 024°12'0 0.3
2018-Jun-04 23:00N 40°31' E 024°12'  
Track history (hours):
 
Tides and Currents Weather Stations Pressure Air Temp Water Temp Dewpoint Dewpoint Depression Visibility Wind Speed Wind Dir Waves Ship Positions

Konstantis IV

Last reported at 2018-Jun-12 03:00 UTC. Time now 2018-Jun-19 04:34 UTC.
Position N 40°50' E 024°20'.

Length 29 m; draft 2.4 m.

Type: Fishing. MMSI: 240488000.

Date/timePositionNaut miles runAvg speedWind from/ knotsBaromVisibWave heightAir tempDewpointWater temp
2018-Jun-12 03:00N 40°50' E 024°20'4 8.6
2018-Jun-12 02:30N 40°47' E 024°17'610.5
2018-Jun-12 01:55N 40°42' E 024°12'711.1
2018-Jun-12 01:19N 40°37' E 024°07'611.1
2018-Jun-12 00:46N 40°32' E 024°02'310.8
2018-Jun-12 00:28N 40°29' E 023°59'2 1.4
2018-Jun-11 22:50N 40°27' E 023°59'2 4.9
2018-Jun-11 22:24N 40°28' E 024°01'0 0.9
2018-Jun-11 21:58N 40°28' E 024°02'0 0.2
2018-Jun-11 21:30N 40°28' E 024°02'0 0.4
2018-Jun-11 20:55N 40°28' E 024°02'0 0.1
2018-Jun-11 20:30N 40°28' E 024°02'0 0.6
2018-Jun-11 19:54N 40°28' E 024°02'0 0.1
2018-Jun-11 19:30N 40°28' E 024°02'0 0.5
2018-Jun-11 18:58N 40°28' E 024°02'2 4.9
2018-Jun-11 18:30N 40°28' E 024°05'  
2018-Jun-07 18:46N 40°28' E 024°11'0 0.0
2018-Jun-07 18:16N 40°28' E 024°11'0 0.6
2018-Jun-07 17:53N 40°28' E 024°11'4 7.4
2018-Jun-07 17:22N 40°32' E 024°12'410.1
2018-Jun-07 17:00N 40°35' E 024°14'510.2
2018-Jun-07 16:30N 40°40' E 024°16'510.5
2018-Jun-07 16:00N 40°45' E 024°18'510.2
2018-Jun-07 15:30N 40°50' E 024°20'1 0.0
2018-Jun-05 23:54N 40°51' E 024°19'3 8.1
2018-Jun-05 23:30N 40°48' E 024°19'510.4
2018-Jun-05 23:00N 40°43' E 024°16'8 0.4
2018-Jun-05 02:35N 40°51' E 024°19'0 0.0
2018-Jun-05 02:30N 40°51' E 024°19'0 0.0
2018-Jun-05 01:51N 40°51' E 024°19'2 5.1
2018-Jun-05 01:30N 40°50' E 024°21'510.3
2018-Jun-05 00:59N 40°44' E 024°19'510.3
2018-Jun-05 00:30N 40°40' E 024°17'510.2
2018-Jun-05 00:00N 40°35' E 024°14'4 8.1
2018-Jun-04 23:27N 40°31' E 024°12'0 0.3
2018-Jun-04 23:00N 40°31' E 024°12'  

Dump ship's entire track history